Track Ермолаева Варвара

Time Latitude Longitude Accuracy (66% radius in meters) Altitude (meters) Speed (km/hour) Bearing (degrees) Battery (%) GPS flag
09:25:19 60.370942 29.556378 6 62 0 14.27218914032 75 1 delete
09:25:06 60.370933 29.556381 16 72 0.087584249675274 55.211120605469 75 1 delete
09:24:54 60.370914 29.556385 8 68 0 186.40802001953 75 1 delete
09:24:49 60.370915 29.556403 12 75 0.47388690710068 147.37689208984 75 1 delete
09:24:41 60.370942 29.556301 6 72 0.38067784905434 197.86418151855 75 1 delete
09:24:29 60.370957 29.556346 6 72 0 30.41796875 75 1 delete
09:24:28 60.370960 29.556354 6 73 0.045069508254528 30.41796875 75 1 delete
09:24:15 60.370978 29.556421 8 69 0 255.87724304199 75 1 delete
09:24:02 60.371001 29.556425 6 89 0 86.348175048828 75 1 delete
09:23:59 60.371000 29.556390 6 94 0 86.348175048828 75 1 delete
09:23:48 60.371001 29.556371 6 88 0 33.009449005127 75 1 delete
09:23:35 60.371009 29.556367 12 65 0 33.009449005127 75 1 delete
09:23:21 60.371005 29.556296 8 86 0 54.050903320312 75 1 delete
09:23:07 60.370971 29.556307 6 94 0 221.06045532227 75 1 delete
09:22:53 60.370980 29.556267 6 77 0 277.48657226562 75 1 delete
09:22:45 60.370959 29.556282 16 97 0 170.34580993652 75 1 delete
09:22:38 60.370952 29.556367 6 84 0 170.34580993652 75 1 delete
09:22:37 60.370955 29.556379 8 80 0 170.34580993652 75 1 delete
09:22:25 60.370999 29.556405 16 86 0 170.34580993652 75 1 delete
09:22:24 60.371007 29.556392 16 92 0 170.34580993652 75 1 delete
09:22:11 60.371042 29.556300 8 103 0 322.59246826172 75 1 delete
09:22:00 60.371029 29.556322 24 77 0 5.1242923736572 75 1 delete
09:21:57 60.371030 29.556337 8 77 0 5.1242923736572 75 1 delete
09:21:43 60.371016 29.556417 6 60 0 354.15737915039 75 1 delete
09:21:30 60.371043 29.556408 16 77 0 354.15737915039 75 1 delete
09:21:19 60.371052 29.556312 8 63 0 270.89947509766 75 1 delete
09:21:16 60.371038 29.556278 6 66 0 270.89947509766 75 1 delete
09:21:02 60.371016 29.556246 8 67 0 300.02545166016 75 1 delete
09:21:00 60.371014 29.556258 8 65 0.12203194946051 300.02545166016 75 1 delete
09:20:48 60.370985 29.556310 6 73 0.30184501409531 251.33047485352 75 1 delete
09:20:34 60.370998 29.556345 8 82 0 235.96533203125 75 1 delete
09:20:32 60.370991 29.556346 8 82 0 235.96533203125 75 1 delete
09:20:21 60.370947 29.556316 6 96 0 151.08654785156 75 1 delete
09:20:08 60.370918 29.556227 12 100 0 162.55644226074 75 1 delete
09:19:55 60.370913 29.556199 8 89 0 162.55644226074 75 1 delete
09:19:42 60.370912 29.556198 8 64 0 162.55644226074 75 1 delete
09:19:28 60.370901 29.556165 16 58 0 276.708984375 75 1 delete
09:19:14 60.370898 29.556241 8 74 0 226.96975708008 75 1 delete
09:19:12 60.370907 29.556240 8 84 0 226.96975708008 75 1 delete
09:18:58 60.370967 29.556233 8 72 0 226.96975708008 75 1 delete
09:18:54 60.370955 29.556235 12 87 0.04726118221879 226.96975708008 75 1 delete
09:18:46 60.370966 29.556324 8 88 0 209.97088623047 75 1 delete
09:18:45 60.370970 29.556339 8 89 0 209.97088623047 75 1 delete
09:18:38 60.370987 29.556406 8 77 0.08602300286293 189.05209350586 75 1 delete
09:18:32 60.371020 29.556392 8 68 0 0.47551512718201 75 1 delete
09:18:20 60.371020 29.556374 8 98 0 8.2452716827393 75 1 delete
09:18:06 60.371045 29.556353 8 101 0 8.2452716827393 75 1 delete
09:18:03 60.371038 29.556367 8 96 0 8.2452716827393 75 1 delete
09:17:53 60.370986 29.556396 8 84 0 318.07870483398 75 1 delete
09:17:40 60.370995 29.556341 6 77 0 132.60604858398 75 1 delete